LPPD

João Paulo II Airport

Ponta Delgada, Portugal
TAF LPPD 230500Z 2306/2406 36008KT 9999 SCT012 PROB30 TEMPO 2306/2310 BKN008 BECMG 2314/2316 VRB05KT SCT020
Issued Valid From Valid To
Apr-23 @ 05:00 UTC
(5 hours ago)
Apr-23 @ 06:00 UTC
(4 hours ago)
Apr-24 @ 06:00 UTC
(in 20 hours)
Apr-23 @ 06:00 to Apr-23 @ 14:00
TAF LPPD 230500Z 2306/2406 36008KT 9999 SCT012
Wind Visibility Clouds
360° at 8 knots 10,000+ meters
  • Scattered at 1,200' AGL
Temporary  (Probability 30%) Apr-23 @ 06:00 to Apr-23 @ 10:00
PROB30 TEMPO 2306/2310 BKN008
Clouds
  • Broken at 800' AGL
Becoming Apr-23 @ 14:00 to Apr-24 @ 06:00
BECMG 2314/2316 VRB05KT SCT020
Wind Visibility Clouds
Variable at 5 knots 10,000+ meters
  • Scattered at 2,000' AGL
TAF LPPD 230500Z 2306/2406 36008KT 9999 SCT012 PROB30 TEMPO 2306/2310 BKN008 BECMG 2314/2316 VRB05KT SCT020
Issued Apr-23 @ 05:00 UTC
(5 hours ago)
Valid From Apr-23 @ 06:00 UTC
(4 hours ago)
Valid To Apr-24 @ 06:00 UTC
(in 20 hours)
Apr-23 @ 06:00 - Apr-23 @ 14:00
Wind Visibility
360° at 8 knots 10,000+ meters
Clouds
  • Scattered at 1,200' AGL
Probability 30% Temporary Apr-23 @ 06:00 - Apr-23 @ 10:00
Clouds
  • Broken at 800' AGL
Becoming Apr-23 @ 14:00 - Apr-24 @ 06:00
Wind Visibility
Variable at 5 knots 10,000+ meters
Clouds
  • Scattered at 2,000' AGL